createdAt,value
2022-12-25T00:09:53.200Z,0.63
2022-12-25T00:19:57.691Z,0.62
2022-12-25T00:30:00.715Z,0.58
2022-12-25T00:40:06.128Z,0.56
2022-12-25T00:50:09.971Z,0.54
2022-12-25T01:00:16.984Z,0.51
2022-12-25T01:10:22.952Z,0.49
2022-12-25T01:20:27.340Z,0.47
2022-12-25T01:30:30.481Z,0.44
2022-12-25T01:40:35.909Z,0.41
2022-12-25T01:50:41.217Z,0.39
2022-12-25T02:00:46.495Z,0.37
2022-12-25T02:10:49.592Z,0.35
2022-12-25T02:21:30.594Z,0.30
2022-12-25T02:31:41.110Z,0.28
2022-12-25T02:41:48.050Z,0.27
2022-12-25T02:52:15.506Z,0.23
2022-12-25T03:02:38.163Z,0.21
2022-12-25T03:12:50.512Z,0.17
2022-12-25T03:23:13.757Z,0.16
2022-12-25T03:33:44.581Z,0.15
2022-12-25T03:44:27.938Z,0.14
2022-12-25T03:54:57.048Z,0.10
2022-12-25T04:05:18.465Z,0.06
2022-12-25T04:15:41.422Z,-0.00
2022-12-25T04:26:03.239Z,-0.05
2022-12-25T04:36:09.539Z,-0.12
2022-12-25T04:46:14.553Z,-0.16
2022-12-25T04:56:19.873Z,-0.20
2022-12-25T05:06:22.804Z,-0.24
2022-12-25T05:16:27.510Z,-0.29
2022-12-25T05:26:30.793Z,-0.34
2022-12-25T05:36:35.612Z,-0.42
2022-12-25T05:46:38.655Z,-0.49
2022-12-25T05:56:46.520Z,-0.56
2022-12-25T06:06:49.450Z,-0.64
2022-12-25T06:16:55.030Z,-0.73
2022-12-25T06:27:06.934Z,-0.79
2022-12-25T06:37:11.580Z,-0.85
2022-12-25T06:47:14.569Z,-0.84
2022-12-25T06:57:20.021Z,-0.80
2022-12-25T07:07:24.365Z,-0.76
2022-12-25T07:17:29.895Z,-0.75
2022-12-25T07:27:33.819Z,-0.74
2022-12-25T07:37:39.928Z,-0.70
2022-12-25T07:47:44.232Z,-0.67
2022-12-25T07:57:49.488Z,-0.65
2022-12-25T08:07:57.370Z,-0.62
2022-12-25T08:18:03.651Z,-0.60
2022-12-25T08:28:06.999Z,-0.57
2022-12-25T08:38:11.923Z,-0.53
2022-12-25T08:48:15.377Z,-0.50
2022-12-25T08:58:20.471Z,-0.47
2022-12-25T09:08:24.405Z,-0.44
2022-12-25T09:18:29.816Z,-0.47
2022-12-25T09:28:35.083Z,-0.45
2022-12-25T09:38:40.170Z,-0.47
2022-12-25T09:48:49.130Z,-0.47
2022-12-25T09:58:55.222Z,-0.49
2022-12-25T10:09:18.282Z,-0.50
2022-12-25T10:19:41.252Z,-0.52
2022-12-25T10:29:47.209Z,-0.55
2022-12-25T10:39:53.164Z,-0.60
2022-12-25T10:49:57.472Z,-0.64
2022-12-25T11:00:08.745Z,-0.69
2022-12-25T11:10:22.349Z,-0.75
2022-12-25T11:20:28.340Z,-0.81
2022-12-25T11:30:34.956Z,-0.88
2022-12-25T11:40:47.955Z,-0.95
2022-12-25T11:50:55.962Z,-1.04
2022-12-25T12:01:05.937Z,-1.12
2022-12-25T12:11:19.764Z,-1.20
2022-12-25T12:21:26.997Z,-1.31
2022-12-25T12:31:40.915Z,-1.37
2022-12-25T12:41:48.540Z,-1.46
2022-12-25T12:52:03.240Z,-1.55
2022-12-25T13:02:35.642Z,-1.61
2022-12-25T13:12:39.751Z,-1.69
2022-12-25T13:22:52.399Z,-1.78
2022-12-25T13:32:57.718Z,-1.85
2022-12-25T13:43:03.330Z,-1.93
2022-12-25T13:53:13.482Z,-2.00
2022-12-25T14:03:20.517Z,-2.10
2022-12-25T14:13:29.970Z,-2.19
2022-12-25T14:23:42.245Z,-2.28
2022-12-25T14:33:45.509Z,-2.38
2022-12-25T14:43:55.276Z,-2.47
2022-12-25T14:54:02.022Z,-2.56
2022-12-25T15:04:15.819Z,-2.65
2022-12-25T15:14:20.938Z,-2.73
2022-12-25T15:24:26.652Z,-2.80
2022-12-25T15:34:31.071Z,-2.86
2022-12-25T15:44:36.996Z,-2.92
2022-12-25T15:54:40.965Z,-2.99
2022-12-25T16:04:53.858Z,-3.05
2022-12-25T16:15:00.501Z,-3.14
2022-12-25T16:25:14.521Z,-3.28
2022-12-25T16:35:18.970Z,-3.34
2022-12-25T16:45:24.592Z,-3.41
2022-12-25T16:55:30.352Z,-3.46
2022-12-25T17:05:37.559Z,-3.51
2022-12-25T17:15:46.655Z,-3.57
2022-12-25T17:26:01.304Z,-3.65
2022-12-25T17:36:08.781Z,-3.70
2022-12-25T17:46:16.763Z,-3.75
2022-12-25T17:56:24.209Z,-3.78
2022-12-25T18:17:34.956Z,-3.94
2022-12-25T18:27:50.145Z,-3.98
2022-12-25T18:37:55.787Z,-4.06
2022-12-25T18:48:03.634Z,-4.11
2022-12-25T18:58:11.289Z,-4.18
2022-12-25T19:08:17.579Z,-4.21
2022-12-25T19:18:24.836Z,-4.26
2022-12-25T19:28:30.513Z,-4.31
2022-12-25T19:38:34.370Z,-4.34
2022-12-25T19:48:38.988Z,-4.39
2022-12-25T19:58:42.057Z,-4.44
2022-12-25T20:08:49.026Z,-4.47
2022-12-25T20:18:53.827Z,-4.48
2022-12-25T20:29:01.753Z,-4.48
2022-12-25T20:39:07.160Z,-4.48
2022-12-25T20:49:13.149Z,-4.49
2022-12-25T20:59:16.175Z,-4.49
2022-12-25T21:09:21.215Z,-4.51
2022-12-25T21:19:41.264Z,-4.52
2022-12-25T21:29:45.703Z,-4.52
2022-12-25T21:39:50.599Z,-4.53
2022-12-25T21:50:13.647Z,-4.52
2022-12-25T22:00:17.910Z,-4.52
2022-12-25T22:10:22.487Z,-4.51
2022-12-25T22:20:26.982Z,-4.51
2022-12-25T22:30:32.170Z,-4.52
2022-12-25T22:40:38.064Z,-4.53
2022-12-25T22:50:42.637Z,-4.56
2022-12-25T23:00:46.545Z,-4.59
2022-12-25T23:10:52.267Z,-4.64
2022-12-25T23:21:18.837Z,-4.72
2022-12-25T23:31:25.879Z,-4.74
2022-12-25T23:41:29.026Z,-4.77
2022-12-25T23:51:35.279Z,-4.79
